Time;durP1;ratioP1;P1;durP2;ratioP2;P2;SDS_P1;SDS_P2;PMS_P1;PMS_P2;Temp;Humidity;BMP_temperature;BMP_pressure;BME280_temperature;BME280_humidity;BME280_pressure;Samples;Min_cycle;Max_cycle;Signal;HPM_P1;HPM_P2
2022/09/08 00:02:16;;;;;;;2.35;1.73;;;22.60;99.90;;;;;;7393305;19;20822;-75
2022/09/08 00:04:42;;;;;;;2.45;1.60;;;22.60;99.90;;;;;;7394739;19;20142;-76
2022/09/08 00:07:08;;;;;;;3.35;2.03;;;22.60;99.90;;;;;;7394338;19;20234;-74
2022/09/08 00:09:35;;;;;;;3.08;1.85;;;22.60;99.90;;;;;;7392536;19;20146;-75
2022/09/08 00:12:02;;;;;;;2.50;1.77;;;22.50;99.90;;;;;;7393795;19;20150;-75
2022/09/08 00:14:30;;;;;;;2.28;1.48;;;22.40;99.90;;;;;;7391978;19;20154;-75
2022/09/08 00:16:56;;;;;;;3.88;2.25;;;22.00;99.90;;;;;;7393518;19;20147;-75
2022/09/08 00:19:22;;;;;;;4.45;1.63;;;22.10;99.90;;;;;;7391022;19;20897;-75
2022/09/08 00:21:48;;;;;;;3.17;1.85;;;22.00;99.90;;;;;;7394165;19;20152;-75
2022/09/08 00:24:13;;;;;;;2.33;1.70;;;22.20;99.90;;;;;;7391728;19;20138;-75
2022/09/08 00:26:39;;;;;;;2.53;1.50;;;22.10;99.90;;;;;;7386575;19;20143;-75
2022/09/08 00:29:05;;;;;;;2.78;1.30;;;21.90;99.90;;;;;;7391011;19;20162;-75
2022/09/08 00:31:31;;;;;;;3.33;1.63;;;21.90;99.90;;;;;;7394717;19;20138;-76
2022/09/08 00:33:57;;;;;;;2.90;2.00;;;22.10;99.90;;;;;;7392956;19;20155;-76
2022/09/08 00:36:23;;;;;;;4.22;1.85;;;22.10;99.90;;;;;;7393764;19;20138;-76
2022/09/08 00:38:50;;;;;;;2.97;1.80;;;22.00;99.90;;;;;;7392555;19;20141;-76
2022/09/08 00:41:17;;;;;;;4.70;1.90;;;22.00;99.90;;;;;;7393927;19;20598;-75
2022/09/08 00:43:45;;;;;;;4.32;2.38;;;22.00;99.90;;;;;;7392262;19;20152;-76
2022/09/08 00:46:12;;;;;;;4.10;2.28;;;22.10;99.90;;;;;;7387213;19;20191;-76
2022/09/08 00:48:44;;;;;;;2.65;2.20;;;22.10;99.90;;;;;;7393654;19;20122;-76
2022/09/08 00:51:12;;;;;;;3.72;2.60;;;22.10;99.90;;;;;;7394021;19;20126;-75
2022/09/08 00:53:38;;;;;;;2.63;2.13;;;22.10;99.90;;;;;;7391463;19;20487;-75
2022/09/08 00:56:06;;;;;;;3.17;2.10;;;22.00;99.90;;;;;;7394630;19;20127;-75
2022/09/08 00:58:37;;;;;;;3.50;2.17;;;21.90;99.90;;;;;;7387644;19;20150;-76
2022/09/08 01:03:41;;;;;;;5.55;2.40;;;22.00;99.90;;;;;;7329835;19;20441;-75
2022/09/08 01:06:12;;;;;;;2.75;2.20;;;22.00;99.90;;;;;;7377935;19;20710;-76
2022/09/08 01:14:51;;;;;;;3.05;1.73;;;22.00;99.90;;;;;;7393347;19;20139;-76
2022/09/08 01:17:21;;;;;;;2.90;1.80;;;22.00;99.90;;;;;;7392558;19;20615;-76
2022/09/08 01:19:47;;;;;;;4.53;2.00;;;21.80;99.90;;;;;;7381628;19;20142;-76
2022/09/08 01:22:39;;;;;;;3.75;2.13;;;21.70;99.90;;;;;;7405770;19;20153;-76
2022/09/08 01:25:07;;;;;;;3.08;1.88;;;21.80;99.90;;;;;;7405651;19;20158;-75
2022/09/08 01:27:37;;;;;;;3.22;2.15;;;21.90;99.90;;;;;;7404930;19;20657;-75
2022/09/08 01:30:09;;;;;;;3.63;2.30;;;22.00;99.90;;;;;;7406595;19;20149;-75
2022/09/08 01:32:38;;;;;;;2.78;1.75;;;22.10;99.90;;;;;;7402508;19;20162;-75
2022/09/08 01:35:06;;;;;;;2.35;1.83;;;21.90;99.90;;;;;;7405965;19;20138;-75
2022/09/08 01:37:31;;;;;;;5.15;1.92;;;21.80;99.90;;;;;;7405027;19;20169;-75
2022/09/08 01:39:57;;;;;;;2.45;1.80;;;21.50;99.90;;;;;;7403101;19;20139;-76
2022/09/08 01:42:24;;;;;;;3.85;1.67;;;21.70;99.90;;;;;;7407478;19;20149;-76
2022/09/08 01:44:50;;;;;;;2.72;1.90;;;21.80;99.90;;;;;;7404365;19;20146;-76
2022/09/08 01:47:16;;;;;;;1.90;1.67;;;21.80;99.90;;;;;;7405541;19;20202;-74
2022/09/08 01:49:42;;;;;;;2.88;1.83;;;21.60;99.90;;;;;;7399681;19;20509;-74
2022/09/08 01:52:08;;;;;;;3.10;1.77;;;21.60;99.90;;;;;;7404486;19;20198;-75
2022/09/08 01:54:34;;;;;;;3.80;1.85;;;21.60;99.90;;;;;;7405187;19;20146;-75
2022/09/08 01:57:00;;;;;;;1.85;1.42;;;21.60;99.90;;;;;;7405262;19;20157;-76
2022/09/08 01:59:26;;;;;;;2.10;1.80;;;21.70;99.90;;;;;;7403870;19;20599;-76
2022/09/08 02:01:51;;;;;;;3.13;1.92;;;21.70;99.90;;;;;;7405498;19;20217;-76
2022/09/08 02:04:17;;;;;;;2.63;1.92;;;21.70;99.90;;;;;;7401846;19;20231;-76
2022/09/08 02:06:43;;;;;;;3.58;1.70;;;21.70;99.90;;;;;;7403410;19;20130;-76
2022/09/08 02:09:09;;;;;;;2.33;1.75;;;21.60;99.90;;;;;;7402601;19;20134;-76
2022/09/08 02:11:35;;;;;;;4.45;2.03;;;21.70;99.90;;;;;;7406787;19;20682;-76
2022/09/08 02:14:01;;;;;;;2.50;1.95;;;21.80;99.90;;;;;;7404138;19;20143;-76
2022/09/08 02:16:29;;;;;;;2.80;2.00;;;21.80;99.90;;;;;;7407099;19;20158;-77
2022/09/08 02:18:56;;;;;;;3.85;2.00;;;21.80;99.90;;;;;;7401855;19;20150;-76
2022/09/08 02:21:27;;;;;;;2.45;1.90;;;21.70;99.90;;;;;;7406869;19;20533;-75
2022/09/08 02:23:54;;;;;;;2.25;1.60;;;21.70;99.90;;;;;;7405819;19;20156;-75
2022/09/08 02:26:28;;;;;;;2.30;1.23;;;21.60;99.90;;;;;;7404312;19;20139;-75
2022/09/08 02:28:54;;;;;;;4.22;1.70;;;21.60;99.90;;;;;;7404549;19;20154;-75
2022/09/08 02:31:25;;;;;;;1.50;1.40;;;21.70;99.90;;;;;;7405254;19;20145;-76
2022/09/08 02:33:51;;;;;;;1.27;1.10;;;21.50;99.90;;;;;;7397493;19;20146;-75
2022/09/08 02:36:17;;;;;;;1.88;1.08;;;21.40;99.90;;;;;;7397010;19;20140;-74
2022/09/08 02:38:52;;;;;;;1.10;0.98;;;21.30;99.90;;;;;;7397385;19;20142;-74
2022/09/08 02:41:19;;;;;;;2.03;0.80;;;21.30;99.90;;;;;;7391029;19;20452;-75
2022/09/08 02:43:44;;;;;;;1.13;0.80;;;21.20;99.90;;;;;;7397399;19;20150;-74
2022/09/08 02:46:11;;;;;;;1.10;1.00;;;21.20;99.90;;;;;;7396739;19;20775;-76
2022/09/08 02:48:37;;;;;;;2.45;1.20;;;21.20;99.90;;;;;;7395603;19;20139;-75
2022/09/08 02:51:05;;;;;;;1.77;1.00;;;21.30;99.90;;;;;;7398471;19;20151;-76
2022/09/08 02:53:32;;;;;;;1.20;0.85;;;21.40;99.90;;;;;;7398735;19;20131;-76
2022/09/08 02:55:58;;;;;;;2.80;1.00;;;21.40;99.90;;;;;;7395790;19;20150;-75
2022/09/08 02:58:25;;;;;;;1.30;1.00;;;21.40;99.90;;;;;;7397128;19;20259;-76
2022/09/08 03:00:51;;;;;;;2.35;0.90;;;21.40;99.90;;;;;;7395983;19;20134;-76
2022/09/08 03:03:16;;;;;;;1.15;1.02;;;21.50;99.90;;;;;;7396689;19;20154;-76
2022/09/08 03:05:42;;;;;;;1.30;0.80;;;21.30;99.90;;;;;;7396066;19;20615;-76
2022/09/08 03:08:08;;;;;;;1.60;0.93;;;21.30;99.90;;;;;;7396055;19;20420;-76
2022/09/08 03:10:35;;;;;;;1.25;1.00;;;21.30;99.90;;;;;;7394628;19;20250;-74
2022/09/08 03:13:01;;;;;;;1.95;0.90;;;21.20;99.90;;;;;;7397655;19;20131;-75
2022/09/08 03:15:29;;;;;;;1.75;1.10;;;21.20;99.90;;;;;;7393984;19;20130;-75
2022/09/08 03:17:55;;;;;;;2.53;1.00;;;21.30;99.90;;;;;;7395349;19;20152;-75
2022/09/08 03:20:22;;;;;;;1.17;0.70;;;21.20;99.90;;;;;;7393720;19;20127;-75
2022/09/08 03:22:48;;;;;;;0.95;0.88;;;21.30;99.90;;;;;;7395771;19;20139;-76
2022/09/08 03:25:15;;;;;;;4.35;0.95;;;21.40;99.90;;;;;;7396407;19;20134;-76
2022/09/08 03:27:41;;;;;;;3.90;0.80;;;21.40;99.90;;;;;;7392170;19;20221;-74
2022/09/08 03:30:10;;;;;;;3.97;0.85;;;21.30;99.90;;;;;;7396973;19;20175;-75
2022/09/08 03:32:38;;;;;;;1.55;0.85;;;21.20;99.90;;;;;;7395537;19;20485;-75
2022/09/08 03:35:07;;;;;;;1.80;0.90;;;21.20;99.90;;;;;;7394212;19;20177;-76
2022/09/08 03:37:34;;;;;;;1.77;0.80;;;21.30;99.90;;;;;;7395905;19;20985;-75
2022/09/08 03:40:02;;;;;;;2.58;0.90;;;21.10;99.90;;;;;;7393681;19;20131;-75
2022/09/08 03:42:33;;;;;;;0.98;0.82;;;20.90;99.90;;;;;;7396541;19;20504;-76
2022/09/08 03:44:59;;;;;;;2.88;0.85;;;21.10;99.90;;;;;;7394078;19;20138;-75
2022/09/08 03:47:25;;;;;;;2.60;0.90;;;21.20;99.90;;;;;;7395286;19;20138;-76
2022/09/08 03:49:51;;;;;;;0.80;0.70;;;21.20;99.90;;;;;;7393589;19;20138;-76
2022/09/08 03:52:17;;;;;;;1.65;0.75;;;21.20;99.90;;;;;;7393375;19;20243;-76
2022/09/08 03:54:50;;;;;;;1.13;0.70;;;21.20;99.90;;;;;;7395900;19;20130;-76
2022/09/08 03:57:22;;;;;;;1.13;0.73;;;21.30;99.90;;;;;;7385775;19;20139;-75
2022/09/08 03:59:49;;;;;;;2.38;0.80;;;21.30;99.90;;;;;;7391137;19;20873;-75
2022/09/08 04:02:15;;;;;;;1.02;0.80;;;21.20;99.90;;;;;;7394196;19;20145;-75
2022/09/08 04:04:42;;;;;;;1.08;0.65;;;21.00;99.90;;;;;;7392327;19;20135;-75
2022/09/08 04:07:09;;;;;;;1.90;0.85;;;21.10;99.90;;;;;;7394931;19;20149;-76
2022/09/08 04:09:36;;;;;;;1.52;1.00;;;21.20;99.90;;;;;;7392878;19;20252;-75
2022/09/08 04:12:03;;;;;;;0.93;0.70;;;21.20;99.90;;;;;;7392133;19;20142;-76
2022/09/08 04:14:30;;;;;;;0.73;0.60;;;21.10;99.90;;;;;;7392298;19;20146;-76
2022/09/08 04:16:56;;;;;;;1.58;0.63;;;21.00;99.90;;;;;;7395744;19;20458;-76
2022/09/08 04:19:23;;;;;;;1.13;0.80;;;21.00;99.90;;;;;;7392481;19;20147;-75
2022/09/08 04:21:49;;;;;;;0.55;0.55;;;21.00;99.90;;;;;;7395092;19;20167;-75
2022/09/08 04:24:15;;;;;;;1.08;0.88;;;21.10;99.90;;;;;;7393096;19;20142;-75
2022/09/08 04:26:41;;;;;;;2.38;0.90;;;21.10;99.90;;;;;;7396154;19;20579;-77
2022/09/08 04:29:07;;;;;;;1.17;0.70;;;21.00;99.90;;;;;;7391577;19;20127;-77
2022/09/08 04:31:35;;;;;;;1.52;0.65;;;20.90;99.90;;;;;;7394141;19;20137;-78
2022/09/08 04:34:02;;;;;;;1.08;0.50;;;21.00;99.90;;;;;;7393452;19;20136;-77
2022/09/08 04:36:28;;;;;;;2.80;0.77;;;20.90;99.90;;;;;;7393016;19;20134;-76
2022/09/08 04:38:56;;;;;;;0.63;0.63;;;20.90;99.90;;;;;;7391238;19;20743;-78
2022/09/08 04:41:22;;;;;;;1.02;0.70;;;20.90;99.90;;;;;;7394038;19;20580;-78
2022/09/08 04:43:48;;;;;;;0.85;0.80;;;20.80;99.90;;;;;;7392672;19;20142;-77
2022/09/08 04:46:16;;;;;;;2.08;1.10;;;20.80;99.90;;;;;;7394869;19;20142;-78
2022/09/08 04:48:42;;;;;;;1.65;0.90;;;20.90;99.90;;;;;;7391297;19;20209;-78
2022/09/08 04:51:15;;;;;;;1.58;0.60;;;20.70;99.90;;;;;;7392079;19;20122;-79
2022/09/08 04:53:42;;;;;;;1.50;0.63;;;20.60;99.90;;;;;;7393131;19;20131;-79
2022/09/08 04:56:10;;;;;;;0.80;0.70;;;20.50;99.90;;;;;;7390343;19;20138;-76
2022/09/08 04:58:38;;;;;;;1.38;0.65;;;20.30;99.90;;;;;;7390521;19;20130;-77
2022/09/08 05:01:06;;;;;;;0.65;0.50;;;20.40;99.90;;;;;;7391732;19;20502;-77
2022/09/08 05:03:32;;;;;;;2.15;0.70;;;20.40;99.90;;;;;;7392885;19;20562;-77
2022/09/08 05:06:13;;;;;;;0.60;0.60;;;20.50;99.90;;;;;;7390765;19;20167;-76
2022/09/08 05:08:42;;;;;;;1.63;0.60;;;20.70;99.90;;;;;;7391963;19;20553;-76
2022/09/08 05:11:09;;;;;;;2.10;0.85;;;20.70;99.90;;;;;;7393550;19;20142;-77
2022/09/08 05:13:35;;;;;;;2.08;1.10;;;20.70;99.90;;;;;;7391177;19;20131;-76
2022/09/08 05:16:06;;;;;;;1.10;0.63;;;20.60;99.90;;;;;;7389387;19;20223;-77
2022/09/08 05:18:31;;;;;;;1.48;0.90;;;20.60;99.90;;;;;;7392792;19;20889;-78
2022/09/08 05:20:57;;;;;;;1.58;0.55;;;20.60;99.90;;;;;;7393035;19;20135;-77
2022/09/08 05:23:23;;;;;;;0.82;0.80;;;20.40;99.90;;;;;;7391661;19;20189;-78
2022/09/08 05:26:06;;;;;;;1.42;0.80;;;20.60;99.90;;;;;;7393175;19;20138;-78
2022/09/08 05:28:38;;;;;;;2.95;0.80;;;20.70;99.90;;;;;;7390533;19;20477;-79
2022/09/08 05:31:05;;;;;;;1.60;0.70;;;20.60;99.90;;;;;;7389222;19;20138;-78
2022/09/08 05:33:32;;;;;;;2.75;1.00;;;20.40;99.90;;;;;;7391587;19;20219;-78
2022/09/08 05:35:58;;;;;;;1.15;0.82;;;20.50;99.90;;;;;;7392578;19;20142;-79
2022/09/08 05:38:24;;;;;;;1.17;0.85;;;20.60;99.90;;;;;;7391088;19;20627;-76
2022/09/08 05:40:50;;;;;;;1.67;0.93;;;20.60;99.90;;;;;;7393727;19;20168;-76
2022/09/08 05:43:17;;;;;;;3.40;0.80;;;20.70;99.90;;;;;;7387659;19;20143;-77
2022/09/08 05:45:44;;;;;;;1.65;0.90;;;20.80;99.90;;;;;;7389797;19;20150;-79
2022/09/08 05:48:10;;;;;;;3.58;0.80;;;20.80;99.90;;;;;;7388994;19;20138;-77
2022/09/08 05:50:36;;;;;;;1.98;0.88;;;20.80;99.90;;;;;;7386568;19;20258;-77
2022/09/08 05:53:03;;;;;;;2.22;0.88;;;20.80;99.90;;;;;;7389678;19;20146;-78
2022/09/08 05:55:29;;;;;;;1.10;0.90;;;20.60;99.90;;;;;;7389658;19;20248;-77
2022/09/08 05:57:56;;;;;;;1.55;0.90;;;20.50;99.90;;;;;;7393084;19;20139;-77
2022/09/08 06:00:23;;;;;;;0.60;0.60;;;20.50;99.90;;;;;;7389728;19;20591;-76
2022/09/08 06:02:53;;;;;;;1.75;0.73;;;20.60;99.90;;;;;;7389981;19;20158;-77
2022/09/08 06:05:19;;;;;;;2.85;0.90;;;20.50;99.90;;;;;;7391951;19;20154;-77
2022/09/08 06:07:47;;;;;;;2.47;0.60;;;20.60;99.90;;;;;;7392312;19;20143;-76
2022/09/08 06:10:13;;;;;;;0.95;0.80;;;20.50;99.90;;;;;;7395696;19;20161;-78
2022/09/08 06:12:38;;;;;;;3.50;1.15;;;20.50;99.90;;;;;;7398436;19;20145;-75
2022/09/08 06:15:05;;;;;;;1.55;1.10;;;20.50;99.90;;;;;;7397507;19;20139;-77
2022/09/08 06:17:31;;;;;;;1.17;0.70;;;20.40;99.90;;;;;;7395370;19;20213;-77
2022/09/08 06:19:58;;;;;;;3.15;1.00;;;20.40;99.90;;;;;;7391250;19;20166;-77
2022/09/08 06:22:24;;;;;;;1.55;0.90;;;20.50;99.90;;;;;;7396013;19;20135;-78
2022/09/08 06:24:50;;;;;;;0.82;0.60;;;20.40;99.90;;;;;;7398804;19;20242;-77
2022/09/08 06:27:30;;;;;;;0.82;0.55;;;20.20;99.90;;;;;;7397586;19;20166;-77
2022/09/08 06:30:01;;;;;;;0.80;0.50;;;19.90;99.90;;;;;;7395918;19;20500;-78
2022/09/08 06:32:41;;;;;;;0.60;0.60;;;19.80;99.90;;;;;;7397791;19;20222;-78
2022/09/08 06:35:28;;;;;;;1.40;0.55;;;20.20;99.90;;;;;;7396290;19;20142;-79
2022/09/08 06:37:59;;;;;;;1.27;0.65;;;20.10;99.90;;;;;;7395005;19;20157;-79
2022/09/08 06:40:42;;;;;;;2.55;0.70;;;20.20;99.90;;;;;;7396844;19;20150;-78
2022/09/08 06:43:26;;;;;;;2.20;0.55;;;20.30;99.90;;;;;;7398123;19;20142;-78
2022/09/08 06:45:54;;;;;;;2.30;0.90;;;20.20;99.90;;;;;;7397648;19;20631;-78
2022/09/08 06:48:30;;;;;;;1.58;0.52;;;20.20;99.90;;;;;;7396608;19;20163;-77
2022/09/08 06:51:12;;;;;;;3.40;0.77;;;20.30;99.90;;;;;;7395442;19;20180;-78
2022/09/08 06:53:49;;;;;;;2.15;0.70;;;20.50;99.90;;;;;;7397663;19;20142;-78
2022/09/08 06:56:24;;;;;;;2.17;0.70;;;20.50;99.90;;;;;;7396373;19;20146;-78
2022/09/08 06:59:01;;;;;;;1.08;0.63;;;20.50;99.90;;;;;;7396410;19;20157;-77
2022/09/08 07:01:35;;;;;;;2.88;0.85;;;20.50;99.90;;;;;;7393744;19;20146;-78
2022/09/08 07:04:24;;;;;;;0.55;0.50;;;20.20;99.90;;;;;;7394386;19;20159;-78
2022/09/08 07:06:59;;;;;;;1.48;0.70;;;20.20;99.90;;;;;;7397105;19;20138;-78
2022/09/08 07:09:50;;;;;;;0.95;0.80;;;20.20;99.90;;;;;;7397756;19;20134;-77
2022/09/08 07:12:49;;;;;;;2.75;1.13;;;20.40;99.90;;;;;;7397290;19;20141;-77
2022/09/08 07:15:52;;;;;;;1.98;0.85;;;20.50;99.90;;;;;;7397495;19;20159;-78
2022/09/08 07:18:40;;;;;;;1.63;0.63;;;20.50;99.90;;;;;;7395975;19;20858;-78
2022/09/08 07:21:12;;;;;;;2.00;0.80;;;20.50;99.90;;;;;;7399691;19;20201;-77
2022/09/08 07:23:39;;;;;;;4.18;0.80;;;20.40;99.90;;;;;;7397641;19;20127;-78
2022/09/08 07:26:15;;;;;;;1.10;0.80;;;20.40;99.90;;;;;;7400527;19;20485;-78
2022/09/08 07:28:46;;;;;;;0.82;0.70;;;20.30;99.90;;;;;;7395586;19;20150;-78
2022/09/08 07:31:24;;;;;;;1.30;0.85;;;20.20;99.90;;;;;;7395204;19;20174;-78
2022/09/08 07:33:56;;;;;;;2.60;1.30;;;20.20;99.90;;;;;;7396990;19;20457;-79
2022/09/08 07:36:34;;;;;;;2.08;1.00;;;20.50;99.90;;;;;;7395906;19;20489;-79
2022/09/08 07:39:32;;;;;;;1.52;0.73;;;20.50;99.90;;;;;;7395858;19;20149;-79
2022/09/08 07:42:02;;;;;;;1.08;0.80;;;20.50;99.90;;;;;;7395387;19;20161;-78
2022/09/08 07:44:27;;;;;;;0.73;0.60;;;20.30;99.90;;;;;;7395503;19;20135;-77
2022/09/08 07:47:09;;;;;;;3.08;0.85;;;20.60;99.90;;;;;;7394228;19;20138;-78
2022/09/08 07:50:10;;;;;;;2.10;0.90;;;20.70;99.90;;;;;;7395612;19;20135;-80
2022/09/08 07:52:48;;;;;;;1.38;0.70;;;20.90;99.90;;;;;;7385354;19;20173;-79
2022/09/08 07:55:37;;;;;;;2.53;0.95;;;20.80;99.90;;;;;;7395332;19;20143;-79
2022/09/08 07:58:15;;;;;;;1.48;0.82;;;21.30;99.90;;;;;;7396134;19;20149;-78
2022/09/08 08:00:50;;;;;;;1.45;0.95;;;21.70;99.90;;;;;;7395649;19;20559;-79
2022/09/08 08:03:37;;;;;;;5.35;2.20;;;21.90;99.90;;;;;;7395249;19;20498;-78
2022/09/08 08:06:13;;;;;;;2.58;0.70;;;22.10;99.90;;;;;;7396570;19;20880;-79
2022/09/08 08:08:54;;;;;;;2.20;0.90;;;22.10;99.90;;;;;;7392664;19;20138;-79
2022/09/08 08:11:37;;;;;;;1.83;1.08;;;22.10;99.90;;;;;;7396612;19;20152;-79
2022/09/08 08:14:22;;;;;;;2.17;0.68;;;22.00;99.90;;;;;;7393326;19;20465;-79
2022/09/08 08:17:12;;;;;;;4.20;0.70;;;22.40;99.90;;;;;;7392981;19;20146;-79
2022/09/08 08:19:56;;;;;;;0.90;0.70;;;22.60;99.90;;;;;;7393180;19;20150;-79
2022/09/08 08:22:33;;;;;;;1.52;0.60;;;22.80;99.90;;;;;;7394023;19;20149;-79
2022/09/08 08:25:23;;;;;;;0.70;0.52;;;23.00;99.90;;;;;;7395541;19;20205;-78
2022/09/08 08:28:05;;;;;;;0.77;0.57;;;22.90;99.90;;;;;;7392670;19;20595;-79
2022/09/08 08:30:38;;;;;;;1.55;0.75;;;23.10;99.90;;;;;;7391157;19;20630;-79
2022/09/08 08:33:18;;;;;;;0.40;0.40;;;23.10;99.90;;;;;;7392850;19;20611;-79
2022/09/08 08:35:48;;;;;;;0.63;0.57;;;22.90;99.90;;;;;;7394204;19;20563;-78
2022/09/08 08:38:22;;;;;;;1.77;0.50;;;22.50;99.90;;;;;;7391962;19;20180;-78
2022/09/08 08:40:56;;;;;;;0.90;0.60;;;22.60;99.90;;;;;;7395795;19;20198;-78
2022/09/08 08:43:25;;;;;;;0.70;0.50;;;22.60;99.90;;;;;;7393532;19;20130;-79
2022/09/08 08:46:12;;;;;;;1.23;0.50;;;22.50;99.90;;;;;;7393933;19;20186;-79
2022/09/08 08:48:44;;;;;;;1.35;0.63;;;22.60;99.90;;;;;;7393400;19;20135;-78
2022/09/08 08:51:21;;;;;;;0.68;0.57;;;22.60;99.90;;;;;;7393947;19;20142;-77
2022/09/08 08:53:55;;;;;;;0.40;0.40;;;22.50;99.90;;;;;;7393530;19;20161;-77
2022/09/08 08:56:32;;;;;;;1.95;0.75;;;22.70;99.90;;;;;;7391961;19;20134;-77
2022/09/08 08:59:20;;;;;;;5.13;0.50;;;22.80;99.90;;;;;;7389158;19;20146;-76
2022/09/08 09:02:23;;;;;;;1.75;0.50;;;22.70;99.90;;;;;;7394701;19;20802;-77
2022/09/08 09:05:02;;;;;;;0.75;0.40;;;22.30;99.90;;;;;;7391723;19;20138;-78
2022/09/08 09:07:37;;;;;;;0.50;0.50;;;22.30;99.90;;;;;;7394506;19;20152;-78
2022/09/08 09:10:34;;;;;;;1.67;0.60;;;22.10;99.90;;;;;;7392713;19;20149;-79
2022/09/08 09:13:12;;;;;;;1.33;0.50;;;22.10;99.90;;;;;;7393901;19;20130;-78
2022/09/08 09:16:15;;;;;;;1.15;0.70;;;22.20;99.90;;;;;;7391896;19;20142;-78
2022/09/08 09:18:59;;;;;;;1.60;0.52;;;22.10;99.90;;;;;;7390282;19;20489;-78
2022/09/08 09:21:51;;;;;;;1.35;0.77;;;22.10;99.90;;;;;;7390368;19;20135;-78
2022/09/08 09:24:50;;;;;;;0.70;0.70;;;22.10;99.90;;;;;;7393900;19;20575;-79
2022/09/08 09:27:34;;;;;;;1.10;0.63;;;22.00;99.90;;;;;;7393033;19;20548;-78
2022/09/08 09:30:12;;;;;;;2.47;1.08;;;21.80;99.90;;;;;;7391915;19;20504;-79
2022/09/08 09:33:15;;;;;;;1.38;0.57;;;21.80;99.90;;;;;;7390902;19;20138;-78
2022/09/08 09:36:18;;;;;;;2.45;1.45;;;21.70;99.90;;;;;;7393108;19;20150;-78
2022/09/08 09:39:15;;;;;;;3.35;0.57;;;21.90;99.90;;;;;;7391342;19;20142;-78
2022/09/08 09:42:08;;;;;;;0.60;0.50;;;21.70;99.90;;;;;;7394979;19;20161;-77
2022/09/08 09:44:39;;;;;;;3.08;0.77;;;21.60;99.90;;;;;;7397990;19;20491;-78
2022/09/08 09:47:17;;;;;;;0.95;0.60;;;21.70;99.90;;;;;;7400670;19;20203;-77
2022/09/08 09:50:02;;;;;;;1.15;0.70;;;21.70;99.90;;;;;;7399928;19;20593;-78
2022/09/08 09:53:05;;;;;;;2.78;0.82;;;21.80;99.90;;;;;;7399643;19;20145;-76
2022/09/08 09:56:22;;;;;;;0.80;0.70;;;22.00;99.90;;;;;;7397971;19;20149;-78
2022/09/08 09:58:57;;;;;;;1.02;0.60;;;22.30;99.90;;;;;;7395836;19;20674;-78
2022/09/08 10:01:50;;;;;;;3.78;0.68;;;22.20;99.90;;;;;;7399247;19;20138;-78
2022/09/08 10:04:37;;;;;;;3.33;0.77;;;22.30;99.90;;;;;;7395583;19;20189;-78
2022/09/08 10:07:24;;;;;;;0.93;0.60;;;22.70;99.90;;;;;;7399608;19;20138;-78
2022/09/08 10:10:08;;;;;;;0.68;0.68;;;23.00;99.90;;;;;;7396821;19;20526;-78
2022/09/08 10:13:01;;;;;;;1.15;0.90;;;23.30;99.90;;;;;;7398011;19;20143;-77
2022/09/08 10:15:42;;;;;;;0.68;0.60;;;23.50;99.90;;;;;;7398248;19;20139;-78
2022/09/08 10:18:37;;;;;;;0.75;0.35;;;23.50;99.90;;;;;;7398813;19;20135;-78
2022/09/08 10:21:24;;;;;;;1.50;0.73;;;23.30;99.90;;;;;;7395022;19;20532;-78
2022/09/08 10:24:03;;;;;;;1.30;0.50;;;23.00;99.90;;;;;;7397343;19;20160;-77
2022/09/08 10:27:01;;;;;;;1.55;0.70;;;22.90;99.90;;;;;;7396142;19;20142;-78
2022/09/08 10:29:42;;;;;;;2.25;0.47;;;22.80;99.90;;;;;;7397966;19;20184;-78
2022/09/08 10:32:32;;;;;;;1.27;0.55;;;22.60;99.90;;;;;;7399621;19;20166;-79
2022/09/08 10:35:16;;;;;;;2.03;0.70;;;22.50;99.90;;;;;;7398483;19;20238;-77
2022/09/08 10:38:19;;;;;;;0.70;0.63;;;22.30;99.90;;;;;;7395755;19;20149;-78
2022/09/08 10:41:22;;;;;;;1.27;0.70;;;22.30;99.90;;;;;;7399172;19;20211;-77
2022/09/08 10:44:13;;;;;;;0.70;0.65;;;22.30;99.90;;;;;;7395523;19;20150;-78
2022/09/08 10:46:54;;;;;;;1.48;0.50;;;22.30;99.90;;;;;;7396813;19;20169;-76
2022/09/08 10:49:28;;;;;;;2.15;0.50;;;22.50;99.90;;;;;;7396428;19;20145;-77
2022/09/08 10:52:24;;;;;;;1.65;0.50;;;22.40;99.90;;;;;;7398468;19;20212;-77
2022/09/08 10:55:01;;;;;;;1.45;0.45;;;22.50;99.90;;;;;;7394300;19;20166;-77
2022/09/08 10:57:51;;;;;;;0.90;0.50;;;22.30;99.90;;;;;;7395208;19;20171;-78
2022/09/08 11:00:22;;;;;;;0.60;0.50;;;22.40;99.90;;;;;;7395858;19;20134;-78
2022/09/08 11:03:21;;;;;;;2.20;0.50;;;22.50;99.90;;;;;;7399256;19;20159;-78
2022/09/08 11:05:52;;;;;;;0.73;0.40;;;22.50;99.90;;;;;;7398518;19;20139;-77
2022/09/08 11:08:37;;;;;;;0.40;0.40;;;22.30;99.90;;;;;;7397165;19;20514;-76
2022/09/08 11:11:20;;;;;;;0.77;0.60;;;22.20;99.90;;;;;;7396023;19;20173;-78
2022/09/08 11:13:48;;;;;;;1.05;0.50;;;22.00;99.90;;;;;;7394758;19;20162;-77
2022/09/08 11:16:51;;;;;;;1.77;1.00;;;22.10;99.90;;;;;;7394399;19;20150;-78
2022/09/08 11:19:51;;;;;;;0.80;0.63;;;22.30;99.90;;;;;;7394483;19;20154;-77
2022/09/08 11:22:50;;;;;;;2.70;0.90;;;22.40;99.90;;;;;;7398525;19;20151;-77
2022/09/08 11:25:26;;;;;;;1.15;0.50;;;22.30;99.90;;;;;;7397890;19;20139;-76
2022/09/08 11:27:58;;;;;;;1.65;0.60;;;22.00;99.90;;;;;;7397397;19;20227;-77
2022/09/08 11:31:02;;;;;;;1.90;0.55;;;22.10;99.90;;;;;;7394895;19;20178;-78
2022/09/08 11:33:48;;;;;;;6.03;0.70;;;21.90;99.90;;;;;;7393986;19;20142;-77
2022/09/08 11:36:38;;;;;;;1.08;0.40;;;22.00;99.90;;;;;;7396979;19;20139;-77
2022/09/08 11:39:28;;;;;;;0.77;0.50;;;21.90;99.90;;;;;;7397042;19;20138;-78
2022/09/08 11:41:54;;;;;;;2.53;0.68;;;21.90;99.90;;;;;;7395550;19;20126;-77
2022/09/08 11:44:41;;;;;;;0.65;0.47;;;21.90;99.90;;;;;;7396017;19;20595;-77
2022/09/08 11:47:44;;;;;;;1.33;0.50;;;21.90;99.90;;;;;;7397160;19;20699;-78
2022/09/08 11:50:16;;;;;;;3.97;0.63;;;22.00;99.90;;;;;;7394262;19;20149;-78
2022/09/08 11:53:08;;;;;;;1.50;0.80;;;22.00;99.90;;;;;;7395828;19;20140;-77
2022/09/08 11:55:55;;;;;;;1.98;0.60;;;22.00;99.90;;;;;;7397941;19;20139;-79
2022/09/08 11:58:36;;;;;;;1.95;0.57;;;22.00;99.90;;;;;;7395926;19;20135;-77
2022/09/08 12:01:27;;;;;;;2.42;0.77;;;21.90;99.90;;;;;;7395906;19;20137;-78
2022/09/08 12:04:09;;;;;;;1.50;0.70;;;22.00;99.90;;;;;;7394806;19;20175;-78
2022/09/08 12:06:56;;;;;;;1.67;0.60;;;22.20;99.90;;;;;;7392505;19;20135;-77
2022/09/08 12:09:31;;;;;;;0.68;0.50;;;22.20;99.90;;;;;;7392062;19;20137;-77
2022/09/08 12:12:15;;;;;;;1.80;0.80;;;22.20;99.90;;;;;;7394514;19;20147;-78
2022/09/08 12:15:08;;;;;;;2.05;0.68;;;22.20;99.90;;;;;;7397023;19;20135;-78
2022/09/08 12:18:07;;;;;;;1.90;0.60;;;22.20;99.90;;;;;;7392626;19;20138;-78
2022/09/08 12:20:53;;;;;;;0.90;0.60;;;22.30;99.90;;;;;;7392246;19;20486;-78
2022/09/08 12:23:31;;;;;;;1.85;0.85;;;22.30;99.90;;;;;;7392614;19;20209;-78
2022/09/08 12:26:15;;;;;;;1.15;0.82;;;22.40;99.90;;;;;;7396336;19;20126;-78
2022/09/08 12:28:56;;;;;;;1.90;0.80;;;22.30;99.90;;;;;;7392679;19;20158;-77
2022/09/08 12:31:40;;;;;;;2.28;1.00;;;22.60;99.90;;;;;;7393905;19;20194;-79
2022/09/08 12:34:34;;;;;;;0.88;0.65;;;22.50;99.90;;;;;;7396642;19;20134;-78
2022/09/08 12:37:08;;;;;;;2.08;0.90;;;22.60;99.90;;;;;;7395223;19;20224;-78
2022/09/08 12:39:53;;;;;;;2.05;0.50;;;22.60;99.90;;;;;;7392741;19;20137;-77
2022/09/08 12:42:58;;;;;;;1.98;0.70;;;22.90;99.90;;;;;;7393886;19;20138;-79
2022/09/08 12:45:42;;;;;;;0.90;0.70;;;23.00;99.90;;;;;;7394452;19;20131;-77
2022/09/08 12:48:35;;;;;;;1.25;0.70;;;22.80;99.90;;;;;;7394386;19;20530;-78
2022/09/08 12:51:20;;;;;;;2.33;1.15;;;22.80;99.90;;;;;;7392186;19;20145;-78
2022/09/08 12:54:04;;;;;;;1.23;0.80;;;22.90;99.90;;;;;;7396241;19;20131;-77
2022/09/08 12:56:42;;;;;;;1.83;0.73;;;23.20;99.90;;;;;;7396035;19;20134;-79
2022/09/08 12:59:36;;;;;;;1.10;0.75;;;23.40;99.90;;;;;;7394168;19;20134;-78
2022/09/08 13:02:24;;;;;;;1.45;0.60;;;23.30;99.90;;;;;;7393162;19;20142;-78
2022/09/08 13:05:22;;;;;;;1.08;0.80;;;23.30;99.90;;;;;;7395026;19;20130;-78
2022/09/08 13:08:25;;;;;;;3.67;1.67;;;23.30;99.90;;;;;;7393691;19;20142;-77
2022/09/08 13:10:58;;;;;;;1.10;0.70;;;23.30;99.90;;;;;;7395138;19;20508;-77
2022/09/08 13:13:46;;;;;;;0.85;0.70;;;23.30;99.90;;;;;;7393978;19;20161;-78
2022/09/08 13:16:36;;;;;;;0.95;0.52;;;23.30;99.90;;;;;;7391435;19;20150;-77
2022/09/08 13:19:28;;;;;;;2.88;0.68;;;23.30;99.90;;;;;;7392609;19;20470;-78
2022/09/08 13:22:18;;;;;;;1.30;0.73;;;23.20;99.90;;;;;;7391818;19;20163;-78
2022/09/08 13:24:48;;;;;;;1.55;0.70;;;23.40;99.90;;;;;;7395267;19;20162;-77
2022/09/08 13:27:41;;;;;;;0.93;0.70;;;23.30;99.90;;;;;;7393851;19;20146;-77
2022/09/08 13:30:16;;;;;;;0.80;0.57;;;23.40;99.90;;;;;;7393208;19;20131;-77
2022/09/08 13:32:48;;;;;;;0.70;0.70;;;23.50;99.90;;;;;;7392952;19;20154;-78
2022/09/08 13:35:38;;;;;;;3.00;0.90;;;23.40;99.90;;;;;;7392889;19;20154;-77
2022/09/08 13:38:30;;;;;;;0.70;0.52;;;23.20;99.90;;;;;;7389582;19;20213;-78
2022/09/08 13:41:26;;;;;;;0.70;0.70;;;23.00;99.90;;;;;;7392526;19;20151;-78
2022/09/08 13:44:04;;;;;;;0.85;0.60;;;23.10;99.90;;;;;;7393631;19;20134;-77